createdAt,value
2018-06-21T21:28:59.926Z,19.20
2018-06-21T21:31:28.412Z,19.20
2018-06-21T21:33:57.918Z,19.00
2018-06-21T21:36:29.077Z,19.00
2018-06-21T21:38:57.651Z,18.90
2018-06-21T21:41:26.139Z,18.80
2018-06-21T21:43:54.651Z,18.70
2018-06-21T21:53:47.887Z,18.70
2018-06-21T21:56:16.347Z,18.60
2018-06-21T21:58:44.855Z,18.50
2018-06-21T22:01:13.309Z,18.40
2018-06-21T22:03:41.722Z,18.40
2018-06-21T22:06:11.837Z,18.40
2018-06-21T22:08:43.620Z,18.30
2018-06-21T22:11:12.963Z,18.20
2018-06-21T22:13:41.509Z,18.20
2018-06-21T22:16:09.999Z,18.20
2018-06-21T22:18:38.429Z,18.20
2018-06-21T22:21:06.856Z,18.10
2018-06-21T22:23:35.358Z,18.10
2018-06-21T22:26:04.659Z,18.00
2018-06-21T22:28:33.174Z,18.00
2018-06-21T22:31:01.583Z,18.10
2018-06-21T22:33:30.188Z,18.00
2018-06-21T22:38:27.495Z,18.00
2018-06-21T22:40:55.935Z,18.00
2018-06-21T22:43:24.411Z,18.00
2018-06-21T22:45:52.826Z,18.00
2018-06-21T22:48:21.272Z,17.90
2018-06-21T22:50:49.712Z,17.90
2018-06-21T22:53:18.335Z,17.80
2018-06-21T23:00:43.136Z,17.90
2018-06-21T23:03:11.642Z,17.90
2018-06-21T23:08:08.774Z,17.70
2018-06-21T23:10:37.179Z,17.60
2018-06-21T23:13:05.780Z,17.60
2018-06-21T23:18:02.939Z,17.70
2018-06-21T23:22:59.607Z,17.70
2018-06-21T23:25:28.127Z,17.80
2018-06-21T23:27:56.919Z,17.80
2018-06-21T23:30:25.423Z,17.80
2018-06-21T23:32:54.192Z,17.80
2018-06-21T23:35:22.659Z,17.70
2018-06-21T23:37:51.551Z,17.70
2018-06-21T23:40:20.322Z,17.60
2018-06-21T23:42:48.799Z,17.50
2018-06-21T23:45:17.323Z,17.50
2018-06-21T23:47:45.815Z,17.50
2018-06-21T23:50:14.243Z,17.60
2018-06-21T23:52:42.822Z,17.50
2018-06-21T23:55:11.354Z,17.40
2018-06-21T23:57:39.824Z,17.40
